sensor_id;sensor_type;location;lat;lon;timestamp;P1;durP1;ratioP1;P2;durP2;ratioP2
42770;SDS011;28426;42.872;25.314;2023-05-15T00:02:12;5.85;;;2.33;;
42770;SDS011;28426;42.872;25.314;2023-05-15T00:04:43;6.00;;;2.30;;
42770;SDS011;28426;42.872;25.314;2023-05-15T00:07:14;7.35;;;2.75;;
42770;SDS011;28426;42.872;25.314;2023-05-15T00:09:47;7.68;;;2.45;;
42770;SDS011;28426;42.872;25.314;2023-05-15T00:12:18;6.10;;;2.53;;
42770;SDS011;28426;42.872;25.314;2023-05-15T00:14:49;4.85;;;2.35;;
42770;SDS011;28426;42.872;25.314;2023-05-15T00:17:20;4.20;;;2.45;;
42770;SDS011;28426;42.872;25.314;2023-05-15T00:19:50;6.30;;;2.60;;
42770;SDS011;28426;42.872;25.314;2023-05-15T00:22:23;6.88;;;3.17;;
42770;SDS011;28426;42.872;25.314;2023-05-15T00:24:57;4.88;;;2.58;;
42770;SDS011;28426;42.872;25.314;2023-05-15T00:27:29;6.03;;;2.67;;
42770;SDS011;28426;42.872;25.314;2023-05-15T00:30:03;7.18;;;2.70;;
42770;SDS011;28426;42.872;25.314;2023-05-15T00:32:35;4.55;;;2.60;;
42770;SDS011;28426;42.872;25.314;2023-05-15T00:35:06;7.38;;;2.88;;
42770;SDS011;28426;42.872;25.314;2023-05-15T00:37:37;4.43;;;2.35;;
42770;SDS011;28426;42.872;25.314;2023-05-15T00:40:14;5.72;;;3.13;;
42770;SDS011;28426;42.872;25.314;2023-05-15T00:42:51;6.22;;;2.63;;
42770;SDS011;28426;42.872;25.314;2023-05-15T00:45:23;6.28;;;2.67;;
42770;SDS011;28426;42.872;25.314;2023-05-15T00:47:56;6.75;;;2.78;;
42770;SDS011;28426;42.872;25.314;2023-05-15T00:50:28;5.50;;;2.80;;
42770;SDS011;28426;42.872;25.314;2023-05-15T00:53:04;8.27;;;3.08;;
42770;SDS011;28426;42.872;25.314;2023-05-15T00:55:37;5.13;;;2.83;;
42770;SDS011;28426;42.872;25.314;2023-05-15T00:58:09;6.13;;;2.90;;
42770;SDS011;28426;42.872;25.314;2023-05-15T01:00:42;6.65;;;3.30;;
42770;SDS011;28426;42.872;25.314;2023-05-15T01:03:16;7.68;;;3.17;;
42770;SDS011;28426;42.872;25.314;2023-05-15T01:05:47;5.22;;;2.67;;
42770;SDS011;28426;42.872;25.314;2023-05-15T01:08:20;4.20;;;2.40;;
42770;SDS011;28426;42.872;25.314;2023-05-15T01:10:58;5.70;;;2.47;;
42770;SDS011;28426;42.872;25.314;2023-05-15T01:13:31;4.75;;;2.40;;
42770;SDS011;28426;42.872;25.314;2023-05-15T01:16:04;6.07;;;2.50;;
42770;SDS011;28426;42.872;25.314;2023-05-15T01:18:36;4.53;;;2.50;;
42770;SDS011;28426;42.872;25.314;2023-05-15T01:21:15;8.30;;;2.60;;
42770;SDS011;28426;42.872;25.314;2023-05-15T01:24:09;5.25;;;2.67;;
42770;SDS011;28426;42.872;25.314;2023-05-15T01:26:54;4.57;;;2.60;;
42770;SDS011;28426;42.872;25.314;2023-05-15T01:29:43;5.03;;;2.50;;
42770;SDS011;28426;42.872;25.314;2023-05-15T01:32:27;4.35;;;2.33;;
42770;SDS011;28426;42.872;25.314;2023-05-15T01:35:08;7.25;;;3.08;;
42770;SDS011;28426;42.872;25.314;2023-05-15T01:37:43;5.57;;;2.42;;
42770;SDS011;28426;42.872;25.314;2023-05-15T01:40:16;5.97;;;2.47;;
42770;SDS011;28426;42.872;25.314;2023-05-15T01:42:52;5.43;;;2.58;;
42770;SDS011;28426;42.872;25.314;2023-05-15T01:45:25;9.18;;;2.80;;
42770;SDS011;28426;42.872;25.314;2023-05-15T01:47:58;6.20;;;2.80;;
42770;SDS011;28426;42.872;25.314;2023-05-15T01:50:31;6.22;;;2.65;;
42770;SDS011;28426;42.872;25.314;2023-05-15T01:53:04;4.40;;;2.63;;
42770;SDS011;28426;42.872;25.314;2023-05-15T01:55:37;6.45;;;3.05;;
42770;SDS011;28426;42.872;25.314;2023-05-15T01:58:11;6.47;;;3.20;;
42770;SDS011;28426;42.872;25.314;2023-05-15T02:00:43;7.83;;;2.97;;
42770;SDS011;28426;42.872;25.314;2023-05-15T02:03:16;7.43;;;3.00;;
42770;SDS011;28426;42.872;25.314;2023-05-15T02:05:48;8.18;;;3.15;;
42770;SDS011;28426;42.872;25.314;2023-05-15T02:08:24;7.57;;;3.05;;
42770;SDS011;28426;42.872;25.314;2023-05-15T02:10:57;7.25;;;3.20;;
42770;SDS011;28426;42.872;25.314;2023-05-15T02:13:32;5.47;;;2.90;;
42770;SDS011;28426;42.872;25.314;2023-05-15T02:16:04;6.13;;;3.10;;
42770;SDS011;28426;42.872;25.314;2023-05-15T02:18:36;5.70;;;2.95;;
42770;SDS011;28426;42.872;25.314;2023-05-15T02:21:27;6.20;;;3.05;;
42770;SDS011;28426;42.872;25.314;2023-05-15T02:23:58;10.18;;;3.40;;
42770;SDS011;28426;42.872;25.314;2023-05-15T02:26:30;7.78;;;3.15;;
42770;SDS011;28426;42.872;25.314;2023-05-15T02:29:12;9.52;;;3.78;;
42770;SDS011;28426;42.872;25.314;2023-05-15T02:31:51;6.03;;;3.58;;
42770;SDS011;28426;42.872;25.314;2023-05-15T02:34:31;9.68;;;3.22;;
42770;SDS011;28426;42.872;25.314;2023-05-15T02:37:07;6.43;;;3.45;;
42770;SDS011;28426;42.872;25.314;2023-05-15T02:39:44;6.82;;;2.85;;
42770;SDS011;28426;42.872;25.314;2023-05-15T02:42:20;9.52;;;3.30;;
42770;SDS011;28426;42.872;25.314;2023-05-15T02:44:54;6.95;;;3.05;;
42770;SDS011;28426;42.872;25.314;2023-05-15T02:47:30;6.50;;;3.17;;
42770;SDS011;28426;42.872;25.314;2023-05-15T02:50:04;8.68;;;3.60;;
42770;SDS011;28426;42.872;25.314;2023-05-15T02:52:36;8.63;;;3.22;;
42770;SDS011;28426;42.872;25.314;2023-05-15T02:55:07;7.20;;;3.40;;
42770;SDS011;28426;42.872;25.314;2023-05-15T02:57:39;7.32;;;3.17;;
42770;SDS011;28426;42.872;25.314;2023-05-15T03:00:13;6.15;;;3.35;;
42770;SDS011;28426;42.872;25.314;2023-05-15T03:02:44;5.93;;;3.20;;
42770;SDS011;28426;42.872;25.314;2023-05-15T03:05:15;7.85;;;3.45;;
42770;SDS011;28426;42.872;25.314;2023-05-15T03:07:47;6.15;;;3.00;;
42770;SDS011;28426;42.872;25.314;2023-05-15T03:10:18;7.75;;;3.22;;
42770;SDS011;28426;42.872;25.314;2023-05-15T03:12:50;7.45;;;3.13;;
42770;SDS011;28426;42.872;25.314;2023-05-15T03:15:23;7.25;;;3.15;;
42770;SDS011;28426;42.872;25.314;2023-05-15T03:17:54;11.52;;;4.00;;
42770;SDS011;28426;42.872;25.314;2023-05-15T03:20:25;7.15;;;3.13;;
42770;SDS011;28426;42.872;25.314;2023-05-15T03:22:56;6.45;;;3.22;;
42770;SDS011;28426;42.872;25.314;2023-05-15T03:25:27;8.07;;;3.80;;
42770;SDS011;28426;42.872;25.314;2023-05-15T03:27:58;11.30;;;3.78;;
42770;SDS011;28426;42.872;25.314;2023-05-15T03:30:31;11.75;;;3.33;;
42770;SDS011;28426;42.872;25.314;2023-05-15T03:33:02;9.30;;;3.80;;
42770;SDS011;28426;42.872;25.314;2023-05-15T03:35:33;9.93;;;3.97;;
42770;SDS011;28426;42.872;25.314;2023-05-15T03:38:04;9.23;;;3.40;;
42770;SDS011;28426;42.872;25.314;2023-05-15T03:40:36;7.90;;;3.70;;
42770;SDS011;28426;42.872;25.314;2023-05-15T03:43:07;10.80;;;4.00;;
42770;SDS011;28426;42.872;25.314;2023-05-15T03:45:42;8.77;;;3.42;;
42770;SDS011;28426;42.872;25.314;2023-05-15T03:48:13;6.55;;;3.50;;
42770;SDS011;28426;42.872;25.314;2023-05-15T03:50:44;5.90;;;3.60;;
42770;SDS011;28426;42.872;25.314;2023-05-15T03:53:15;6.53;;;4.00;;
42770;SDS011;28426;42.872;25.314;2023-05-15T03:55:46;9.80;;;4.20;;
42770;SDS011;28426;42.872;25.314;2023-05-15T03:58:18;8.88;;;4.00;;
42770;SDS011;28426;42.872;25.314;2023-05-15T04:00:51;8.73;;;3.95;;
42770;SDS011;28426;42.872;25.314;2023-05-15T04:03:22;8.32;;;3.50;;
42770;SDS011;28426;42.872;25.314;2023-05-15T04:05:53;14.57;;;4.90;;
42770;SDS011;28426;42.872;25.314;2023-05-15T04:08:24;8.27;;;4.25;;
42770;SDS011;28426;42.872;25.314;2023-05-15T04:10:55;7.30;;;4.13;;
42770;SDS011;28426;42.872;25.314;2023-05-15T04:13:26;9.45;;;4.30;;
42770;SDS011;28426;42.872;25.314;2023-05-15T04:15:59;8.10;;;4.68;;
42770;SDS011;28426;42.872;25.314;2023-05-15T04:18:30;15.40;;;5.43;;
42770;SDS011;28426;42.872;25.314;2023-05-15T04:21:01;11.38;;;4.45;;
42770;SDS011;28426;42.872;25.314;2023-05-15T04:23:32;10.30;;;3.97;;
42770;SDS011;28426;42.872;25.314;2023-05-15T04:26:03;8.18;;;4.20;;
42770;SDS011;28426;42.872;25.314;2023-05-15T04:28:34;7.80;;;3.97;;
42770;SDS011;28426;42.872;25.314;2023-05-15T04:31:13;8.15;;;4.13;;
42770;SDS011;28426;42.872;25.314;2023-05-15T04:33:44;11.80;;;4.10;;
42770;SDS011;28426;42.872;25.314;2023-05-15T04:36:17;8.35;;;4.32;;
42770;SDS011;28426;42.872;25.314;2023-05-15T04:38:49;13.85;;;5.82;;
42770;SDS011;28426;42.872;25.314;2023-05-15T04:41:20;9.55;;;4.43;;
42770;SDS011;28426;42.872;25.314;2023-05-15T04:43:50;12.20;;;5.20;;
42770;SDS011;28426;42.872;25.314;2023-05-15T04:46:24;11.02;;;5.28;;
42770;SDS011;28426;42.872;25.314;2023-05-15T04:48:55;10.15;;;5.10;;
42770;SDS011;28426;42.872;25.314;2023-05-15T04:51:26;8.73;;;4.78;;
42770;SDS011;28426;42.872;25.314;2023-05-15T04:53:57;9.38;;;4.47;;
42770;SDS011;28426;42.872;25.314;2023-05-15T04:56:28;11.45;;;4.85;;
42770;SDS011;28426;42.872;25.314;2023-05-15T04:58:58;14.35;;;4.82;;
42770;SDS011;28426;42.872;25.314;2023-05-15T05:01:32;16.35;;;7.25;;
42770;SDS011;28426;42.872;25.314;2023-05-15T05:04:03;10.55;;;4.65;;
42770;SDS011;28426;42.872;25.314;2023-05-15T05:06:34;8.13;;;4.18;;
42770;SDS011;28426;42.872;25.314;2023-05-15T05:09:05;11.10;;;4.40;;
42770;SDS011;28426;42.872;25.314;2023-05-15T05:11:37;11.98;;;5.00;;
42770;SDS011;28426;42.872;25.314;2023-05-15T05:14:09;14.07;;;5.53;;
42770;SDS011;28426;42.872;25.314;2023-05-15T05:16:43;12.40;;;4.80;;
42770;SDS011;28426;42.872;25.314;2023-05-15T05:19:14;12.77;;;4.60;;
42770;SDS011;28426;42.872;25.314;2023-05-15T05:21:45;12.95;;;4.38;;
42770;SDS011;28426;42.872;25.314;2023-05-15T05:24:16;17.38;;;4.30;;
42770;SDS011;28426;42.872;25.314;2023-05-15T05:26:47;14.88;;;4.97;;
42770;SDS011;28426;42.872;25.314;2023-05-15T05:29:18;10.95;;;4.20;;
42770;SDS011;28426;42.872;25.314;2023-05-15T05:31:51;9.63;;;3.90;;
42770;SDS011;28426;42.872;25.314;2023-05-15T05:34:22;10.20;;;4.38;;
42770;SDS011;28426;42.872;25.314;2023-05-15T05:36:53;9.63;;;4.25;;
42770;SDS011;28426;42.872;25.314;2023-05-15T05:39:24;15.43;;;5.65;;
42770;SDS011;28426;42.872;25.314;2023-05-15T05:41:55;7.22;;;3.97;;
42770;SDS011;28426;42.872;25.314;2023-05-15T05:44:26;10.02;;;4.38;;
42770;SDS011;28426;42.872;25.314;2023-05-15T05:46:59;12.30;;;4.03;;
42770;SDS011;28426;42.872;25.314;2023-05-15T05:49:30;9.43;;;4.38;;
42770;SDS011;28426;42.872;25.314;2023-05-15T05:52:05;8.13;;;4.28;;
42770;SDS011;28426;42.872;25.314;2023-05-15T05:54:36;10.98;;;4.30;;
42770;SDS011;28426;42.872;25.314;2023-05-15T05:57:07;14.07;;;5.03;;
42770;SDS011;28426;42.872;25.314;2023-05-15T05:59:38;12.55;;;4.32;;
42770;SDS011;28426;42.872;25.314;2023-05-15T06:02:12;12.65;;;4.55;;
42770;SDS011;28426;42.872;25.314;2023-05-15T06:04:43;9.93;;;4.35;;
42770;SDS011;28426;42.872;25.314;2023-05-15T06:07:14;13.05;;;3.90;;
42770;SDS011;28426;42.872;25.314;2023-05-15T06:09:45;9.80;;;3.53;;
42770;SDS011;28426;42.872;25.314;2023-05-15T06:12:16;6.53;;;3.53;;
42770;SDS011;28426;42.872;25.314;2023-05-15T06:14:49;8.23;;;3.38;;
42770;SDS011;28426;42.872;25.314;2023-05-15T06:17:22;7.95;;;3.55;;
42770;SDS011;28426;42.872;25.314;2023-05-15T06:19:53;6.90;;;3.33;;
42770;SDS011;28426;42.872;25.314;2023-05-15T06:22:24;13.05;;;3.65;;
42770;SDS011;28426;42.872;25.314;2023-05-15T06:24:54;11.95;;;3.83;;
42770;SDS011;28426;42.872;25.314;2023-05-15T06:27:25;9.88;;;3.40;;
42770;SDS011;28426;42.872;25.314;2023-05-15T06:29:56;12.93;;;3.53;;
42770;SDS011;28426;42.872;25.314;2023-05-15T06:35:42;6.30;;;3.13;;
42770;SDS011;28426;42.872;25.314;2023-05-15T06:38:14;13.27;;;3.85;;
42770;SDS011;28426;42.872;25.314;2023-05-15T06:40:45;10.63;;;3.47;;
42770;SDS011;28426;42.872;25.314;2023-05-15T06:43:16;9.73;;;3.25;;
42770;SDS011;28426;42.872;25.314;2023-05-15T06:45:48;9.43;;;3.17;;
42770;SDS011;28426;42.872;25.314;2023-05-15T06:48:19;11.77;;;4.20;;
42770;SDS011;28426;42.872;25.314;2023-05-15T06:50:53;12.75;;;3.90;;
42770;SDS011;28426;42.872;25.314;2023-05-15T06:53:24;7.05;;;3.17;;
42770;SDS011;28426;42.872;25.314;2023-05-15T06:55:55;16.15;;;4.93;;
42770;SDS011;28426;42.872;25.314;2023-05-15T06:58:26;9.90;;;3.70;;
42770;SDS011;28426;42.872;25.314;2023-05-15T07:01:01;10.18;;;3.40;;
42770;SDS011;28426;42.872;25.314;2023-05-15T07:03:35;12.18;;;4.15;;
42770;SDS011;28426;42.872;25.314;2023-05-15T07:06:09;9.32;;;3.67;;
42770;SDS011;28426;42.872;25.314;2023-05-15T07:08:40;8.48;;;3.30;;
42770;SDS011;28426;42.872;25.314;2023-05-15T07:11:11;8.93;;;3.65;;
42770;SDS011;28426;42.872;25.314;2023-05-15T07:13:42;9.70;;;3.35;;
42770;SDS011;28426;42.872;25.314;2023-05-15T07:16:13;8.15;;;3.22;;
42770;SDS011;28426;42.872;25.314;2023-05-15T07:18:44;8.70;;;3.40;;
42770;SDS011;28426;42.872;25.314;2023-05-15T07:21:20;8.93;;;3.30;;
42770;SDS011;28426;42.872;25.314;2023-05-15T07:23:52;9.60;;;3.95;;
42770;SDS011;28426;42.872;25.314;2023-05-15T07:26:23;12.45;;;4.40;;
42770;SDS011;28426;42.872;25.314;2023-05-15T07:29:04;13.32;;;3.92;;
42770;SDS011;28426;42.872;25.314;2023-05-15T07:31:37;7.63;;;3.20;;
42770;SDS011;28426;42.872;25.314;2023-05-15T07:34:10;10.15;;;3.70;;
42770;SDS011;28426;42.872;25.314;2023-05-15T07:36:45;8.43;;;3.00;;
42770;SDS011;28426;42.872;25.314;2023-05-15T07:39:16;10.73;;;3.47;;
42770;SDS011;28426;42.872;25.314;2023-05-15T07:41:50;8.70;;;3.60;;
42770;SDS011;28426;42.872;25.314;2023-05-15T07:44:21;8.98;;;3.33;;
42770;SDS011;28426;42.872;25.314;2023-05-15T07:46:53;8.48;;;3.05;;
42770;SDS011;28426;42.872;25.314;2023-05-15T07:49:24;9.38;;;2.95;;
42770;SDS011;28426;42.872;25.314;2023-05-15T07:51:58;6.72;;;2.80;;
42770;SDS011;28426;42.872;25.314;2023-05-15T07:57:01;19.10;;;4.10;;
42770;SDS011;28426;42.872;25.314;2023-05-15T07:59:32;8.50;;;3.70;;
42770;SDS011;28426;42.872;25.314;2023-05-15T08:02:04;10.35;;;3.50;;
42770;SDS011;28426;42.872;25.314;2023-05-15T08:04:35;20.02;;;4.68;;
42770;SDS011;28426;42.872;25.314;2023-05-15T08:07:09;11.65;;;3.30;;
42770;SDS011;28426;42.872;25.314;2023-05-15T08:09:40;9.30;;;3.70;;
42770;SDS011;28426;42.872;25.314;2023-05-15T08:12:14;8.45;;;3.42;;
42770;SDS011;28426;42.872;25.314;2023-05-15T08:14:48;13.02;;;4.30;;
42770;SDS011;28426;42.872;25.314;2023-05-15T08:17:19;10.05;;;5.20;;
42770;SDS011;28426;42.872;25.314;2023-05-15T08:19:52;9.30;;;4.80;;
42770;SDS011;28426;42.872;25.314;2023-05-15T08:22:26;9.30;;;4.25;;
42770;SDS011;28426;42.872;25.314;2023-05-15T08:24:57;10.60;;;4.32;;
42770;SDS011;28426;42.872;25.314;2023-05-15T08:27:34;11.50;;;3.78;;
42770;SDS011;28426;42.872;25.314;2023-05-15T08:30:06;10.75;;;3.65;;
42770;SDS011;28426;42.872;25.314;2023-05-15T08:32:37;7.80;;;3.25;;
42770;SDS011;28426;42.872;25.314;2023-05-15T08:35:11;9.63;;;3.25;;
42770;SDS011;28426;42.872;25.314;2023-05-15T08:37:45;8.70;;;3.47;;
42770;SDS011;28426;42.872;25.314;2023-05-15T08:40:16;11.15;;;3.05;;
42770;SDS011;28426;42.872;25.314;2023-05-15T08:43:04;10.00;;;2.90;;
42770;SDS011;28426;42.872;25.314;2023-05-15T08:45:42;8.35;;;2.63;;
42770;SDS011;28426;42.872;25.314;2023-05-15T08:48:13;7.75;;;2.60;;
42770;SDS011;28426;42.872;25.314;2023-05-15T08:50:47;14.32;;;3.17;;
42770;SDS011;28426;42.872;25.314;2023-05-15T08:53:22;11.18;;;3.30;;
42770;SDS011;28426;42.872;25.314;2023-05-15T08:55:53;8.57;;;3.10;;
42770;SDS011;28426;42.872;25.314;2023-05-15T08:58:25;11.75;;;3.28;;
42770;SDS011;28426;42.872;25.314;2023-05-15T09:00:56;10.73;;;3.13;;
42770;SDS011;28426;42.872;25.314;2023-05-15T09:03:29;12.57;;;2.70;;
42770;SDS011;28426;42.872;25.314;2023-05-15T09:06:00;11.07;;;3.00;;
42770;SDS011;28426;42.872;25.314;2023-05-15T09:08:35;9.77;;;2.58;;
42770;SDS011;28426;42.872;25.314;2023-05-15T09:11:08;9.27;;;3.50;;
42770;SDS011;28426;42.872;25.314;2023-05-15T09:13:40;10.50;;;3.08;;
42770;SDS011;28426;42.872;25.314;2023-05-15T09:16:11;12.98;;;3.80;;
42770;SDS011;28426;42.872;25.314;2023-05-15T09:18:42;8.00;;;3.35;;
42770;SDS011;28426;42.872;25.314;2023-05-15T09:21:40;7.88;;;3.53;;
42770;SDS011;28426;42.872;25.314;2023-05-15T09:24:20;10.95;;;3.10;;
42770;SDS011;28426;42.872;25.314;2023-05-15T09:27:01;9.90;;;3.25;;
42770;SDS011;28426;42.872;25.314;2023-05-15T09:29:34;9.80;;;3.13;;
42770;SDS011;28426;42.872;25.314;2023-05-15T09:32:07;13.60;;;3.55;;
42770;SDS011;28426;42.872;25.314;2023-05-15T09:34:40;10.57;;;2.95;;
42770;SDS011;28426;42.872;25.314;2023-05-15T09:37:26;10.77;;;3.58;;
42770;SDS011;28426;42.872;25.314;2023-05-15T09:40:11;12.68;;;2.92;;
42770;SDS011;28426;42.872;25.314;2023-05-15T09:42:43;11.55;;;3.67;;
42770;SDS011;28426;42.872;25.314;2023-05-15T09:45:21;12.05;;;3.65;;
42770;SDS011;28426;42.872;25.314;2023-05-15T09:47:54;9.50;;;3.33;;
42770;SDS011;28426;42.872;25.314;2023-05-15T09:50:31;14.88;;;3.78;;
42770;SDS011;28426;42.872;25.314;2023-05-15T09:53:04;19.67;;;4.10;;
42770;SDS011;28426;42.872;25.314;2023-05-15T09:55:38;15.57;;;3.80;;
42770;SDS011;28426;42.872;25.314;2023-05-15T09:58:12;11.90;;;3.72;;
42770;SDS011;28426;42.872;25.314;2023-05-15T10:00:45;12.38;;;3.92;;
42770;SDS011;28426;42.872;25.314;2023-05-15T10:03:17;15.40;;;3.65;;
42770;SDS011;28426;42.872;25.314;2023-05-15T10:05:50;12.52;;;3.08;;
42770;SDS011;28426;42.872;25.314;2023-05-15T10:08:31;10.63;;;4.45;;
42770;SDS011;28426;42.872;25.314;2023-05-15T10:11:06;16.88;;;5.05;;
42770;SDS011;28426;42.872;25.314;2023-05-15T10:13:37;16.98;;;5.28;;
42770;SDS011;28426;42.872;25.314;2023-05-15T10:16:08;12.52;;;4.20;;
42770;SDS011;28426;42.872;25.314;2023-05-15T10:18:39;15.82;;;4.60;;
42770;SDS011;28426;42.872;25.314;2023-05-15T10:21:11;8.70;;;3.90;;
42770;SDS011;28426;42.872;25.314;2023-05-15T10:23:45;23.20;;;5.18;;
42770;SDS011;28426;42.872;25.314;2023-05-15T10:26:22;14.35;;;5.45;;
42770;SDS011;28426;42.872;25.314;2023-05-15T10:28:56;7.85;;;3.78;;
42770;SDS011;28426;42.872;25.314;2023-05-15T10:31:28;7.20;;;3.72;;
42770;SDS011;28426;42.872;25.314;2023-05-15T10:34:00;14.07;;;4.60;;
42770;SDS011;28426;42.872;25.314;2023-05-15T10:36:32;11.27;;;3.60;;
42770;SDS011;28426;42.872;25.314;2023-05-15T10:39:04;10.45;;;3.83;;
42770;SDS011;28426;42.872;25.314;2023-05-15T10:41:39;8.10;;;3.38;;
42770;SDS011;28426;42.872;25.314;2023-05-15T10:44:10;11.23;;;4.05;;
42770;SDS011;28426;42.872;25.314;2023-05-15T10:46:43;12.45;;;4.28;;
42770;SDS011;28426;42.872;25.314;2023-05-15T10:49:14;13.88;;;3.97;;
42770;SDS011;28426;42.872;25.314;2023-05-15T10:51:46;11.38;;;4.28;;
42770;SDS011;28426;42.872;25.314;2023-05-15T10:54:17;8.40;;;3.35;;
42770;SDS011;28426;42.872;25.314;2023-05-15T10:56:50;8.48;;;3.55;;
42770;SDS011;28426;42.872;25.314;2023-05-15T10:59:31;12.63;;;4.15;;
42770;SDS011;28426;42.872;25.314;2023-05-15T11:02:18;12.60;;;4.20;;
42770;SDS011;28426;42.872;25.314;2023-05-15T11:04:54;12.63;;;4.05;;
42770;SDS011;28426;42.872;25.314;2023-05-15T11:07:26;9.45;;;4.22;;
42770;SDS011;28426;42.872;25.314;2023-05-15T11:09:58;10.50;;;4.00;;
42770;SDS011;28426;42.872;25.314;2023-05-15T11:15:30;15.45;;;4.90;;
42770;SDS011;28426;42.872;25.314;2023-05-15T11:18:11;9.23;;;3.88;;
42770;SDS011;28426;42.872;25.314;2023-05-15T11:23:38;9.30;;;4.30;;
42770;SDS011;28426;42.872;25.314;2023-05-15T11:26:16;10.65;;;4.40;;
42770;SDS011;28426;42.872;25.314;2023-05-15T11:31:52;11.40;;;4.20;;
42770;SDS011;28426;42.872;25.314;2023-05-15T11:34:29;11.88;;;4.88;;
42770;SDS011;28426;42.872;25.314;2023-05-15T11:37:02;12.07;;;4.25;;
42770;SDS011;28426;42.872;25.314;2023-05-15T11:39:46;9.93;;;4.40;;
42770;SDS011;28426;42.872;25.314;2023-05-15T11:42:17;13.95;;;4.72;;
42770;SDS011;28426;42.872;25.314;2023-05-15T11:44:51;10.70;;;4.10;;
42770;SDS011;28426;42.872;25.314;2023-05-15T11:47:22;13.85;;;4.47;;
42770;SDS011;28426;42.872;25.314;2023-05-15T11:49:53;16.08;;;4.70;;
42770;SDS011;28426;42.872;25.314;2023-05-15T11:52:24;14.85;;;4.85;;
42770;SDS011;28426;42.872;25.314;2023-05-15T11:54:56;11.88;;;4.93;;
42770;SDS011;28426;42.872;25.314;2023-05-15T11:57:29;17.33;;;4.88;;
42770;SDS011;28426;42.872;25.314;2023-05-15T12:00:03;12.23;;;4.50;;
42770;SDS011;28426;42.872;25.314;2023-05-15T12:02:36;14.00;;;4.95;;
42770;SDS011;28426;42.872;25.314;2023-05-15T12:05:07;9.48;;;4.75;;
42770;SDS011;28426;42.872;25.314;2023-05-15T12:07:40;10.75;;;4.43;;
42770;SDS011;28426;42.872;25.314;2023-05-15T12:10:13;11.07;;;4.40;;
42770;SDS011;28426;42.872;25.314;2023-05-15T12:12:47;15.30;;;5.00;;
42770;SDS011;28426;42.872;25.314;2023-05-15T12:15:23;15.10;;;4.13;;
42770;SDS011;28426;42.872;25.314;2023-05-15T12:17:56;11.07;;;4.70;;
42770;SDS011;28426;42.872;25.314;2023-05-15T12:20:28;16.23;;;5.00;;
42770;SDS011;28426;42.872;25.314;2023-05-15T12:23:02;14.33;;;6.03;;
42770;SDS011;28426;42.872;25.314;2023-05-15T12:25:35;20.27;;;6.22;;
42770;SDS011;28426;42.872;25.314;2023-05-15T12:28:06;14.02;;;5.43;;
42770;SDS011;28426;42.872;25.314;2023-05-15T12:30:41;17.30;;;4.10;;
42770;SDS011;28426;42.872;25.314;2023-05-15T12:33:13;14.15;;;4.60;;
42770;SDS011;28426;42.872;25.314;2023-05-15T12:35:48;11.00;;;4.70;;
42770;SDS011;28426;42.872;25.314;2023-05-15T12:38:27;20.27;;;5.93;;
42770;SDS011;28426;42.872;25.314;2023-05-15T12:41:00;14.38;;;4.80;;
42770;SDS011;28426;42.872;25.314;2023-05-15T12:43:31;16.92;;;5.43;;
42770;SDS011;28426;42.872;25.314;2023-05-15T12:46:05;13.35;;;4.80;;
42770;SDS011;28426;42.872;25.314;2023-05-15T12:48:35;15.48;;;4.93;;
42770;SDS011;28426;42.872;25.314;2023-05-15T12:51:07;10.85;;;4.28;;
42770;SDS011;28426;42.872;25.314;2023-05-15T12:53:40;11.55;;;4.28;;
42770;SDS011;28426;42.872;25.314;2023-05-15T12:56:16;9.93;;;4.18;;
42770;SDS011;28426;42.872;25.314;2023-05-15T12:58:47;9.00;;;4.35;;
42770;SDS011;28426;42.872;25.314;2023-05-15T13:01:23;11.18;;;5.38;;
42770;SDS011;28426;42.872;25.314;2023-05-15T13:03:55;11.70;;;5.28;;
42770;SDS011;28426;42.872;25.314;2023-05-15T13:06:26;16.50;;;6.53;;
42770;SDS011;28426;42.872;25.314;2023-05-15T13:09:11;13.52;;;5.07;;
42770;SDS011;28426;42.872;25.314;2023-05-15T13:11:43;10.52;;;5.15;;
42770;SDS011;28426;42.872;25.314;2023-05-15T13:14:15;10.07;;;5.13;;
42770;SDS011;28426;42.872;25.314;2023-05-15T13:16:50;17.38;;;5.30;;
42770;SDS011;28426;42.872;25.314;2023-05-15T13:19:20;13.57;;;5.15;;
42770;SDS011;28426;42.872;25.314;2023-05-15T13:21:52;12.18;;;5.28;;
42770;SDS011;28426;42.872;25.314;2023-05-15T13:24:23;10.40;;;5.05;;
42770;SDS011;28426;42.872;25.314;2023-05-15T13:26:54;12.13;;;5.90;;
42770;SDS011;28426;42.872;25.314;2023-05-15T13:29:25;12.43;;;5.25;;
42770;SDS011;28426;42.872;25.314;2023-05-15T13:31:58;14.20;;;5.72;;
42770;SDS011;28426;42.872;25.314;2023-05-15T13:34:29;14.23;;;4.90;;
42770;SDS011;28426;42.872;25.314;2023-05-15T13:37:01;10.65;;;5.43;;
42770;SDS011;28426;42.872;25.314;2023-05-15T13:39:32;18.30;;;6.40;;
42770;SDS011;28426;42.872;25.314;2023-05-15T13:42:03;10.05;;;4.65;;
42770;SDS011;28426;42.872;25.314;2023-05-15T13:44:34;11.77;;;5.65;;
42770;SDS011;28426;42.872;25.314;2023-05-15T13:47:08;15.75;;;5.68;;
42770;SDS011;28426;42.872;25.314;2023-05-15T13:49:39;13.15;;;4.88;;
42770;SDS011;28426;42.872;25.314;2023-05-15T13:52:11;13.77;;;5.40;;
42770;SDS011;28426;42.872;25.314;2023-05-15T13:54:41;11.63;;;4.78;;
42770;SDS011;28426;42.872;25.314;2023-05-15T13:57:12;22.02;;;5.60;;
42770;SDS011;28426;42.872;25.314;2023-05-15T13:59:43;11.32;;;4.90;;
42770;SDS011;28426;42.872;25.314;2023-05-15T14:02:17;16.30;;;9.07;;
42770;SDS011;28426;42.872;25.314;2023-05-15T14:04:49;16.92;;;6.68;;
42770;SDS011;28426;42.872;25.314;2023-05-15T14:07:21;11.52;;;5.68;;
42770;SDS011;28426;42.872;25.314;2023-05-15T14:09:52;11.45;;;4.65;;
42770;SDS011;28426;42.872;25.314;2023-05-15T14:12:24;11.80;;;5.25;;
42770;SDS011;28426;42.872;25.314;2023-05-15T14:14:57;16.15;;;5.30;;
42770;SDS011;28426;42.872;25.314;2023-05-15T14:17:36;13.43;;;5.18;;
42770;SDS011;28426;42.872;25.314;2023-05-15T14:20:10;10.95;;;5.10;;
42770;SDS011;28426;42.872;25.314;2023-05-15T14:22:41;19.35;;;5.70;;
42770;SDS011;28426;42.872;25.314;2023-05-15T14:25:12;10.35;;;4.72;;
42770;SDS011;28426;42.872;25.314;2023-05-15T14:27:43;20.33;;;5.55;;
42770;SDS011;28426;42.872;25.314;2023-05-15T14:30:14;13.18;;;5.40;;
42770;SDS011;28426;42.872;25.314;2023-05-15T14:32:48;15.02;;;5.03;;
42770;SDS011;28426;42.872;25.314;2023-05-15T14:35:20;11.77;;;4.68;;
42770;SDS011;28426;42.872;25.314;2023-05-15T14:37:51;26.80;;;15.57;;
42770;SDS011;28426;42.872;25.314;2023-05-15T14:40:22;17.75;;;5.07;;
42770;SDS011;28426;42.872;25.314;2023-05-15T14:42:53;11.43;;;4.80;;
42770;SDS011;28426;42.872;25.314;2023-05-15T14:45:24;13.50;;;4.80;;
42770;SDS011;28426;42.872;25.314;2023-05-15T14:47:59;9.70;;;4.70;;
42770;SDS011;28426;42.872;25.314;2023-05-15T14:50:30;10.25;;;4.00;;
42770;SDS011;28426;42.872;25.314;2023-05-15T14:53:01;14.23;;;4.60;;
42770;SDS011;28426;42.872;25.314;2023-05-15T14:55:32;12.70;;;5.00;;
42770;SDS011;28426;42.872;25.314;2023-05-15T14:58:04;12.52;;;4.32;;
42770;SDS011;28426;42.872;25.314;2023-05-15T15:00:37;13.73;;;5.65;;
42770;SDS011;28426;42.872;25.314;2023-05-15T15:03:44;16.25;;;4.93;;
42770;SDS011;28426;42.872;25.314;2023-05-15T15:06:15;11.77;;;4.95;;
42770;SDS011;28426;42.872;25.314;2023-05-15T15:08:46;14.25;;;6.20;;
42770;SDS011;28426;42.872;25.314;2023-05-15T15:11:17;10.48;;;5.05;;
42770;SDS011;28426;42.872;25.314;2023-05-15T15:13:48;10.48;;;4.68;;
42770;SDS011;28426;42.872;25.314;2023-05-15T15:16:19;9.93;;;4.82;;
42770;SDS011;28426;42.872;25.314;2023-05-15T15:18:54;12.52;;;5.20;;